sensor_id;sensor_type;location;lat;lon;timestamp;temperature;humidity
48264;DHT22;34086;51.076;13.722;2023-11-19T00:00:19;4.90;99.90
48264;DHT22;34086;51.076;13.722;2023-11-19T00:01:19;4.90;99.90
48264;DHT22;34086;51.076;13.722;2023-11-19T00:02:20;5.00;99.90
48264;DHT22;34086;51.076;13.722;2023-11-19T00:03:21;5.00;99.90
48264;DHT22;34086;51.076;13.722;2023-11-19T00:04:21;4.90;99.90
48264;DHT22;34086;51.076;13.722;2023-11-19T00:05:22;4.90;99.90
48264;DHT22;34086;51.076;13.722;2023-11-19T00:06:22;4.90;99.90
48264;DHT22;34086;51.076;13.722;2023-11-19T00:07:23;4.90;99.90
48264;DHT22;34086;51.076;13.722;2023-11-19T00:08:24;5.00;99.90
48264;DHT22;34086;51.076;13.722;2023-11-19T00:09:25;4.90;99.90
48264;DHT22;34086;51.076;13.722;2023-11-19T00:10:26;4.90;99.90
48264;DHT22;34086;51.076;13.722;2023-11-19T00:11:26;4.90;99.90
48264;DHT22;34086;51.076;13.722;2023-11-19T00:12:27;4.90;99.90
48264;DHT22;34086;51.076;13.722;2023-11-19T00:13:28;4.90;99.90
48264;DHT22;34086;51.076;13.722;2023-11-19T00:14:28;4.90;99.90
48264;DHT22;34086;51.076;13.722;2023-11-19T00:15:29;4.90;99.90
48264;DHT22;34086;51.076;13.722;2023-11-19T00:16:30;4.90;99.90
48264;DHT22;34086;51.076;13.722;2023-11-19T00:17:32;4.90;99.90
48264;DHT22;34086;51.076;13.722;2023-11-19T00:18:33;4.90;99.90
48264;DHT22;34086;51.076;13.722;2023-11-19T00:19:33;4.80;99.90
48264;DHT22;34086;51.076;13.722;2023-11-19T00:20:34;4.80;99.90
48264;DHT22;34086;51.076;13.722;2023-11-19T00:21:34;4.70;99.90
48264;DHT22;34086;51.076;13.722;2023-11-19T00:22:35;4.80;99.90
48264;DHT22;34086;51.076;13.722;2023-11-19T00:23:36;4.80;99.90
48264;DHT22;34086;51.076;13.722;2023-11-19T00:24:37;4.80;99.90
48264;DHT22;34086;51.076;13.722;2023-11-19T00:25:37;4.80;99.90
48264;DHT22;34086;51.076;13.722;2023-11-19T00:26:39;4.80;99.90
48264;DHT22;34086;51.076;13.722;2023-11-19T00:27:40;4.80;99.90
48264;DHT22;34086;51.076;13.722;2023-11-19T00:28:41;4.80;99.90
48264;DHT22;34086;51.076;13.722;2023-11-19T00:29:41;4.80;99.90
48264;DHT22;34086;51.076;13.722;2023-11-19T00:30:42;4.80;99.90
48264;DHT22;34086;51.076;13.722;2023-11-19T00:31:43;4.80;99.90
48264;DHT22;34086;51.076;13.722;2023-11-19T00:32:44;4.80;99.90
48264;DHT22;34086;51.076;13.722;2023-11-19T00:33:45;4.70;99.90
48264;DHT22;34086;51.076;13.722;2023-11-19T00:34:46;4.70;99.90
48264;DHT22;34086;51.076;13.722;2023-11-19T00:35:48;4.80;99.90
48264;DHT22;34086;51.076;13.722;2023-11-19T00:36:49;4.70;99.90
48264;DHT22;34086;51.076;13.722;2023-11-19T00:37:49;4.70;99.90
48264;DHT22;34086;51.076;13.722;2023-11-19T00:38:51;4.70;99.90
48264;DHT22;34086;51.076;13.722;2023-11-19T00:39:53;4.70;99.90
48264;DHT22;34086;51.076;13.722;2023-11-19T00:40:53;4.70;99.90
48264;DHT22;34086;51.076;13.722;2023-11-19T00:41:54;4.70;99.90
48264;DHT22;34086;51.076;13.722;2023-11-19T00:42:54;4.70;99.90
48264;DHT22;34086;51.076;13.722;2023-11-19T00:43:55;4.70;99.90
48264;DHT22;34086;51.076;13.722;2023-11-19T00:44:55;4.70;99.90
48264;DHT22;34086;51.076;13.722;2023-11-19T00:45:56;4.70;99.90
48264;DHT22;34086;51.076;13.722;2023-11-19T00:46:57;4.60;99.90
48264;DHT22;34086;51.076;13.722;2023-11-19T00:47:57;4.70;99.90
48264;DHT22;34086;51.076;13.722;2023-11-19T00:48:59;4.70;99.90
48264;DHT22;34086;51.076;13.722;2023-11-19T00:50:02;4.70;99.90
48264;DHT22;34086;51.076;13.722;2023-11-19T00:51:03;4.70;99.90
48264;DHT22;34086;51.076;13.722;2023-11-19T00:52:06;4.70;99.90
48264;DHT22;34086;51.076;13.722;2023-11-19T00:53:07;4.70;99.90
48264;DHT22;34086;51.076;13.722;2023-11-19T00:54:08;4.70;99.90
48264;DHT22;34086;51.076;13.722;2023-11-19T00:55:08;4.70;99.90
48264;DHT22;34086;51.076;13.722;2023-11-19T00:56:10;4.70;99.90
48264;DHT22;34086;51.076;13.722;2023-11-19T00:57:12;4.70;99.90
48264;DHT22;34086;51.076;13.722;2023-11-19T00:58:13;4.70;99.90
48264;DHT22;34086;51.076;13.722;2023-11-19T00:59:13;4.70;99.90
48264;DHT22;34086;51.076;13.722;2023-11-19T01:00:14;4.70;99.90
48264;DHT22;34086;51.076;13.722;2023-11-19T01:01:27;4.60;99.90
48264;DHT22;34086;51.076;13.722;2023-11-19T01:02:27;4.70;99.90
48264;DHT22;34086;51.076;13.722;2023-11-19T01:03:30;4.70;99.90
48264;DHT22;34086;51.076;13.722;2023-11-19T01:04:34;4.60;99.90
48264;DHT22;34086;51.076;13.722;2023-11-19T01:05:35;4.60;99.90
48264;DHT22;34086;51.076;13.722;2023-11-19T01:06:36;4.70;99.90
48264;DHT22;34086;51.076;13.722;2023-11-19T01:07:37;4.70;99.90
48264;DHT22;34086;51.076;13.722;2023-11-19T01:08:37;4.70;99.90
48264;DHT22;34086;51.076;13.722;2023-11-19T01:09:38;4.70;99.90
48264;DHT22;34086;51.076;13.722;2023-11-19T01:10:39;4.70;99.90
48264;DHT22;34086;51.076;13.722;2023-11-19T01:11:40;4.70;99.90
48264;DHT22;34086;51.076;13.722;2023-11-19T01:12:40;4.70;99.90
48264;DHT22;34086;51.076;13.722;2023-11-19T01:13:41;4.70;99.90
48264;DHT22;34086;51.076;13.722;2023-11-19T01:14:41;4.60;99.90
48264;DHT22;34086;51.076;13.722;2023-11-19T01:15:42;4.60;99.90
48264;DHT22;34086;51.076;13.722;2023-11-19T01:16:43;4.60;99.90
48264;DHT22;34086;51.076;13.722;2023-11-19T01:17:44;4.60;99.90
48264;DHT22;34086;51.076;13.722;2023-11-19T01:18:49;4.60;99.90
48264;DHT22;34086;51.076;13.722;2023-11-19T01:19:50;4.60;99.90
48264;DHT22;34086;51.076;13.722;2023-11-19T01:20:50;4.60;99.90
48264;DHT22;34086;51.076;13.722;2023-11-19T01:21:51;4.60;99.90
48264;DHT22;34086;51.076;13.722;2023-11-19T01:22:52;4.60;99.90
48264;DHT22;34086;51.076;13.722;2023-11-19T01:23:52;4.60;99.90
48264;DHT22;34086;51.076;13.722;2023-11-19T01:24:53;4.60;99.90
48264;DHT22;34086;51.076;13.722;2023-11-19T01:25:54;4.60;99.90
48264;DHT22;34086;51.076;13.722;2023-11-19T01:26:55;4.60;99.90
48264;DHT22;34086;51.076;13.722;2023-11-19T01:27:56;4.60;99.90
48264;DHT22;34086;51.076;13.722;2023-11-19T01:28:58;4.60;99.90
48264;DHT22;34086;51.076;13.722;2023-11-19T01:29:59;4.60;99.90
48264;DHT22;34086;51.076;13.722;2023-11-19T01:31:00;4.70;99.90
48264;DHT22;34086;51.076;13.722;2023-11-19T01:32:01;4.70;99.90
48264;DHT22;34086;51.076;13.722;2023-11-19T01:33:01;4.70;99.90
48264;DHT22;34086;51.076;13.722;2023-11-19T01:34:02;4.70;99.90
48264;DHT22;34086;51.076;13.722;2023-11-19T01:35:03;4.70;99.90
48264;DHT22;34086;51.076;13.722;2023-11-19T01:36:05;4.70;99.90
48264;DHT22;34086;51.076;13.722;2023-11-19T01:37:05;4.70;99.90
48264;DHT22;34086;51.076;13.722;2023-11-19T01:38:06;4.80;99.90
48264;DHT22;34086;51.076;13.722;2023-11-19T01:39:08;4.80;99.90
48264;DHT22;34086;51.076;13.722;2023-11-19T01:40:10;4.80;99.90
48264;DHT22;34086;51.076;13.722;2023-11-19T01:41:11;4.90;99.90
48264;DHT22;34086;51.076;13.722;2023-11-19T01:42:13;4.80;99.90
48264;DHT22;34086;51.076;13.722;2023-11-19T01:43:31;4.80;99.90
48264;DHT22;34086;51.076;13.722;2023-11-19T01:44:33;4.80;99.90
48264;DHT22;34086;51.076;13.722;2023-11-19T01:45:34;4.80;99.90
48264;DHT22;34086;51.076;13.722;2023-11-19T01:46:35;4.80;99.90
48264;DHT22;34086;51.076;13.722;2023-11-19T01:47:37;4.80;99.90
48264;DHT22;34086;51.076;13.722;2023-11-19T01:48:44;4.90;99.90
48264;DHT22;34086;51.076;13.722;2023-11-19T01:49:45;4.80;99.90
48264;DHT22;34086;51.076;13.722;2023-11-19T01:50:46;4.90;99.90
48264;DHT22;34086;51.076;13.722;2023-11-19T01:51:47;4.80;99.90
48264;DHT22;34086;51.076;13.722;2023-11-19T01:52:50;4.90;99.90
48264;DHT22;34086;51.076;13.722;2023-11-19T01:53:52;4.90;99.90
48264;DHT22;34086;51.076;13.722;2023-11-19T01:54:53;4.80;99.90
48264;DHT22;34086;51.076;13.722;2023-11-19T01:55:55;4.90;99.90
48264;DHT22;34086;51.076;13.722;2023-11-19T01:56:57;4.90;99.90
48264;DHT22;34086;51.076;13.722;2023-11-19T01:58:00;4.90;99.90
48264;DHT22;34086;51.076;13.722;2023-11-19T01:59:02;4.90;99.90
48264;DHT22;34086;51.076;13.722;2023-11-19T02:00:04;4.90;99.90
48264;DHT22;34086;51.076;13.722;2023-11-19T02:01:15;4.90;99.90
48264;DHT22;34086;51.076;13.722;2023-11-19T02:02:15;5.00;99.90
48264;DHT22;34086;51.076;13.722;2023-11-19T02:03:21;5.00;99.90
48264;DHT22;34086;51.076;13.722;2023-11-19T02:04:22;5.00;99.90
48264;DHT22;34086;51.076;13.722;2023-11-19T02:05:23;5.00;99.90
48264;DHT22;34086;51.076;13.722;2023-11-19T02:06:24;4.90;99.90
48264;DHT22;34086;51.076;13.722;2023-11-19T02:07:26;5.00;99.90
48264;DHT22;34086;51.076;13.722;2023-11-19T02:08:27;5.00;99.90
48264;DHT22;34086;51.076;13.722;2023-11-19T02:09:27;5.00;99.90
48264;DHT22;34086;51.076;13.722;2023-11-19T02:10:28;5.00;99.90
48264;DHT22;34086;51.076;13.722;2023-11-19T02:11:29;5.00;99.90
48264;DHT22;34086;51.076;13.722;2023-11-19T02:12:29;5.00;99.90
48264;DHT22;34086;51.076;13.722;2023-11-19T02:13:34;5.00;99.90
48264;DHT22;34086;51.076;13.722;2023-11-19T02:14:37;5.00;99.90
48264;DHT22;34086;51.076;13.722;2023-11-19T02:15:39;5.00;99.90
48264;DHT22;34086;51.076;13.722;2023-11-19T02:16:39;5.00;99.90
48264;DHT22;34086;51.076;13.722;2023-11-19T02:17:40;5.00;99.90
48264;DHT22;34086;51.076;13.722;2023-11-19T02:18:41;5.00;99.90
48264;DHT22;34086;51.076;13.722;2023-11-19T02:19:41;5.00;99.90
48264;DHT22;34086;51.076;13.722;2023-11-19T02:20:42;5.00;99.90
48264;DHT22;34086;51.076;13.722;2023-11-19T02:21:43;5.00;99.90
48264;DHT22;34086;51.076;13.722;2023-11-19T02:22:43;5.00;99.90
48264;DHT22;34086;51.076;13.722;2023-11-19T02:23:45;5.00;99.90
48264;DHT22;34086;51.076;13.722;2023-11-19T02:24:47;5.00;99.90
48264;DHT22;34086;51.076;13.722;2023-11-19T02:27:10;5.00;99.90
48264;DHT22;34086;51.076;13.722;2023-11-19T02:28:14;4.90;99.90
48264;DHT22;34086;51.076;13.722;2023-11-19T02:29:15;5.00;99.90
48264;DHT22;34086;51.076;13.722;2023-11-19T02:30:16;4.90;99.90
48264;DHT22;34086;51.076;13.722;2023-11-19T02:31:17;4.90;99.90
48264;DHT22;34086;51.076;13.722;2023-11-19T02:32:20;4.90;99.90
48264;DHT22;34086;51.076;13.722;2023-11-19T02:33:21;4.90;99.90
48264;DHT22;34086;51.076;13.722;2023-11-19T02:34:21;4.90;99.90
48264;DHT22;34086;51.076;13.722;2023-11-19T02:35:22;5.00;99.90
48264;DHT22;34086;51.076;13.722;2023-11-19T02:36:23;4.90;99.90
48264;DHT22;34086;51.076;13.722;2023-11-19T02:37:23;5.00;99.90
48264;DHT22;34086;51.076;13.722;2023-11-19T02:38:24;5.00;99.90
48264;DHT22;34086;51.076;13.722;2023-11-19T02:39:24;5.00;99.90
48264;DHT22;34086;51.076;13.722;2023-11-19T02:40:26;5.00;99.90
48264;DHT22;34086;51.076;13.722;2023-11-19T02:41:27;5.00;99.90
48264;DHT22;34086;51.076;13.722;2023-11-19T02:42:28;5.00;99.90
48264;DHT22;34086;51.076;13.722;2023-11-19T02:43:29;5.00;99.90
48264;DHT22;34086;51.076;13.722;2023-11-19T02:44:31;5.00;99.90
48264;DHT22;34086;51.076;13.722;2023-11-19T02:45:32;5.00;99.90
48264;DHT22;34086;51.076;13.722;2023-11-19T02:46:33;5.00;99.90
48264;DHT22;34086;51.076;13.722;2023-11-19T02:47:34;5.00;99.90
48264;DHT22;34086;51.076;13.722;2023-11-19T02:48:35;5.10;99.90
48264;DHT22;34086;51.076;13.722;2023-11-19T02:49:35;5.10;99.90
48264;DHT22;34086;51.076;13.722;2023-11-19T02:50:37;5.10;99.90
48264;DHT22;34086;51.076;13.722;2023-11-19T02:51:38;5.20;99.90
48264;DHT22;34086;51.076;13.722;2023-11-19T02:52:42;5.10;99.90
48264;DHT22;34086;51.076;13.722;2023-11-19T02:53:43;5.10;99.90
48264;DHT22;34086;51.076;13.722;2023-11-19T02:54:44;5.10;99.90
48264;DHT22;34086;51.076;13.722;2023-11-19T02:55:45;5.20;99.90
48264;DHT22;34086;51.076;13.722;2023-11-19T02:56:50;5.20;99.90
48264;DHT22;34086;51.076;13.722;2023-11-19T02:57:56;5.20;99.90
48264;DHT22;34086;51.076;13.722;2023-11-19T02:58:59;5.20;99.90
48264;DHT22;34086;51.076;13.722;2023-11-19T03:00:00;5.20;99.90
48264;DHT22;34086;51.076;13.722;2023-11-19T03:01:00;5.20;99.90
48264;DHT22;34086;51.076;13.722;2023-11-19T03:02:10;5.20;99.90
48264;DHT22;34086;51.076;13.722;2023-11-19T03:03:12;5.20;99.90
48264;DHT22;34086;51.076;13.722;2023-11-19T03:04:20;5.20;99.90
48264;DHT22;34086;51.076;13.722;2023-11-19T03:05:23;5.30;99.90
48264;DHT22;34086;51.076;13.722;2023-11-19T03:06:24;5.30;99.90
48264;DHT22;34086;51.076;13.722;2023-11-19T03:07:25;5.30;99.90
48264;DHT22;34086;51.076;13.722;2023-11-19T03:08:25;5.30;99.90
48264;DHT22;34086;51.076;13.722;2023-11-19T03:09:26;5.30;99.90
48264;DHT22;34086;51.076;13.722;2023-11-19T03:10:27;5.30;99.90
48264;DHT22;34086;51.076;13.722;2023-11-19T03:11:29;5.30;99.90
48264;DHT22;34086;51.076;13.722;2023-11-19T03:12:30;5.30;99.90
48264;DHT22;34086;51.076;13.722;2023-11-19T03:13:30;5.30;99.90
48264;DHT22;34086;51.076;13.722;2023-11-19T03:14:33;5.30;99.90
48264;DHT22;34086;51.076;13.722;2023-11-19T03:15:34;5.30;99.90
48264;DHT22;34086;51.076;13.722;2023-11-19T03:16:35;5.30;99.90
48264;DHT22;34086;51.076;13.722;2023-11-19T03:17:42;5.30;99.90
48264;DHT22;34086;51.076;13.722;2023-11-19T03:18:46;5.30;99.90
48264;DHT22;34086;51.076;13.722;2023-11-19T03:19:46;5.30;99.90
48264;DHT22;34086;51.076;13.722;2023-11-19T03:20:48;5.30;99.90
48264;DHT22;34086;51.076;13.722;2023-11-19T03:21:50;5.30;99.90
48264;DHT22;34086;51.076;13.722;2023-11-19T03:22:50;5.30;99.90
48264;DHT22;34086;51.076;13.722;2023-11-19T03:23:52;5.40;99.90
48264;DHT22;34086;51.076;13.722;2023-11-19T03:24:52;5.40;99.90
48264;DHT22;34086;51.076;13.722;2023-11-19T03:25:53;5.40;99.90
48264;DHT22;34086;51.076;13.722;2023-11-19T03:26:56;5.40;99.90
48264;DHT22;34086;51.076;13.722;2023-11-19T03:27:56;5.40;99.90
48264;DHT22;34086;51.076;13.722;2023-11-19T03:28:58;5.40;99.90
48264;DHT22;34086;51.076;13.722;2023-11-19T03:29:59;5.40;99.90
48264;DHT22;34086;51.076;13.722;2023-11-19T03:31:00;5.40;99.90
48264;DHT22;34086;51.076;13.722;2023-11-19T03:32:00;5.40;99.90
48264;DHT22;34086;51.076;13.722;2023-11-19T03:33:01;5.40;99.90
48264;DHT22;34086;51.076;13.722;2023-11-19T03:34:02;5.40;99.90
48264;DHT22;34086;51.076;13.722;2023-11-19T03:35:03;5.40;99.90
48264;DHT22;34086;51.076;13.722;2023-11-19T03:36:05;5.40;99.90
48264;DHT22;34086;51.076;13.722;2023-11-19T03:37:06;5.40;99.90
48264;DHT22;34086;51.076;13.722;2023-11-19T03:38:08;5.40;99.90
48264;DHT22;34086;51.076;13.722;2023-11-19T03:39:08;5.50;99.90
48264;DHT22;34086;51.076;13.722;2023-11-19T03:40:09;5.50;99.90
48264;DHT22;34086;51.076;13.722;2023-11-19T03:41:13;5.50;99.90
48264;DHT22;34086;51.076;13.722;2023-11-19T03:42:14;5.50;99.90
48264;DHT22;34086;51.076;13.722;2023-11-19T03:43:15;5.50;99.90
48264;DHT22;34086;51.076;13.722;2023-11-19T03:44:16;5.50;99.90
48264;DHT22;34086;51.076;13.722;2023-11-19T03:45:17;5.50;99.90
48264;DHT22;34086;51.076;13.722;2023-11-19T03:46:21;5.50;99.90
48264;DHT22;34086;51.076;13.722;2023-11-19T03:47:23;5.50;99.90
48264;DHT22;34086;51.076;13.722;2023-11-19T03:48:23;5.50;99.90
48264;DHT22;34086;51.076;13.722;2023-11-19T03:49:24;5.50;99.90
48264;DHT22;34086;51.076;13.722;2023-11-19T03:50:24;5.50;99.90
48264;DHT22;34086;51.076;13.722;2023-11-19T03:51:26;5.60;99.90
48264;DHT22;34086;51.076;13.722;2023-11-19T03:52:26;5.60;99.90
48264;DHT22;34086;51.076;13.722;2023-11-19T03:53:30;5.60;99.90
48264;DHT22;34086;51.076;13.722;2023-11-19T03:54:31;5.60;99.90
48264;DHT22;34086;51.076;13.722;2023-11-19T03:55:33;5.60;99.90
48264;DHT22;34086;51.076;13.722;2023-11-19T03:56:33;5.60;99.90
48264;DHT22;34086;51.076;13.722;2023-11-19T03:57:35;5.60;99.90
48264;DHT22;34086;51.076;13.722;2023-11-19T03:58:35;5.60;99.90
48264;DHT22;34086;51.076;13.722;2023-11-19T03:59:36;5.60;99.90
48264;DHT22;34086;51.076;13.722;2023-11-19T04:00:37;5.60;99.90
48264;DHT22;34086;51.076;13.722;2023-11-19T04:01:37;5.60;99.90
48264;DHT22;34086;51.076;13.722;2023-11-19T04:02:38;5.50;99.90
48264;DHT22;34086;51.076;13.722;2023-11-19T04:03:38;5.60;99.90
48264;DHT22;34086;51.076;13.722;2023-11-19T04:04:39;5.50;99.90
48264;DHT22;34086;51.076;13.722;2023-11-19T04:05:40;5.50;99.90
48264;DHT22;34086;51.076;13.722;2023-11-19T04:06:40;5.60;99.90
48264;DHT22;34086;51.076;13.722;2023-11-19T04:07:41;5.50;99.90
48264;DHT22;34086;51.076;13.722;2023-11-19T04:08:42;5.50;99.90
48264;DHT22;34086;51.076;13.722;2023-11-19T04:09:42;5.50;99.90
48264;DHT22;34086;51.076;13.722;2023-11-19T04:10:43;5.60;99.90
48264;DHT22;34086;51.076;13.722;2023-11-19T04:11:44;5.50;99.90
48264;DHT22;34086;51.076;13.722;2023-11-19T04:12:47;5.50;99.90
48264;DHT22;34086;51.076;13.722;2023-11-19T04:13:47;5.50;99.90
48264;DHT22;34086;51.076;13.722;2023-11-19T04:14:48;5.50;99.90
48264;DHT22;34086;51.076;13.722;2023-11-19T04:15:50;5.50;99.90
48264;DHT22;34086;51.076;13.722;2023-11-19T04:16:50;5.60;99.90
48264;DHT22;34086;51.076;13.722;2023-11-19T04:17:51;5.60;99.90
48264;DHT22;34086;51.076;13.722;2023-11-19T04:18:52;5.60;99.90
48264;DHT22;34086;51.076;13.722;2023-11-19T04:19:52;5.50;99.90
48264;DHT22;34086;51.076;13.722;2023-11-19T04:20:53;5.60;99.90
48264;DHT22;34086;51.076;13.722;2023-11-19T04:21:59;5.50;99.90
48264;DHT22;34086;51.076;13.722;2023-11-19T04:23:00;5.50;99.90
48264;DHT22;34086;51.076;13.722;2023-11-19T04:24:01;5.60;99.90
48264;DHT22;34086;51.076;13.722;2023-11-19T04:25:02;5.50;99.90
48264;DHT22;34086;51.076;13.722;2023-11-19T04:26:03;5.50;99.90
48264;DHT22;34086;51.076;13.722;2023-11-19T04:27:04;5.50;99.90
48264;DHT22;34086;51.076;13.722;2023-11-19T04:28:06;5.50;99.90
48264;DHT22;34086;51.076;13.722;2023-11-19T04:29:09;5.40;99.90
48264;DHT22;34086;51.076;13.722;2023-11-19T04:30:10;5.50;99.90
48264;DHT22;34086;51.076;13.722;2023-11-19T04:31:11;5.40;99.90
48264;DHT22;34086;51.076;13.722;2023-11-19T04:32:12;5.40;99.90
48264;DHT22;34086;51.076;13.722;2023-11-19T04:33:12;5.40;99.90
48264;DHT22;34086;51.076;13.722;2023-11-19T04:34:13;5.40;99.90
48264;DHT22;34086;51.076;13.722;2023-11-19T04:35:13;5.30;99.90
48264;DHT22;34086;51.076;13.722;2023-11-19T04:36:18;5.30;99.90
48264;DHT22;34086;51.076;13.722;2023-11-19T04:37:19;5.30;99.90
48264;DHT22;34086;51.076;13.722;2023-11-19T04:38:20;5.30;99.90
48264;DHT22;34086;51.076;13.722;2023-11-19T04:39:21;5.30;99.90
48264;DHT22;34086;51.076;13.722;2023-11-19T04:40:21;5.30;99.90
48264;DHT22;34086;51.076;13.722;2023-11-19T04:41:23;5.20;99.90
48264;DHT22;34086;51.076;13.722;2023-11-19T04:42:23;5.20;99.90
48264;DHT22;34086;51.076;13.722;2023-11-19T04:43:24;5.20;99.90
48264;DHT22;34086;51.076;13.722;2023-11-19T04:44:25;5.10;99.90
48264;DHT22;34086;51.076;13.722;2023-11-19T04:45:25;5.10;99.90
48264;DHT22;34086;51.076;13.722;2023-11-19T04:46:26;5.20;99.90
48264;DHT22;34086;51.076;13.722;2023-11-19T04:47:26;5.20;99.90
48264;DHT22;34086;51.076;13.722;2023-11-19T04:48:27;5.10;99.90
48264;DHT22;34086;51.076;13.722;2023-11-19T04:49:28;5.10;99.90
48264;DHT22;34086;51.076;13.722;2023-11-19T04:50:28;5.10;99.90
48264;DHT22;34086;51.076;13.722;2023-11-19T04:51:29;5.10;99.90
48264;DHT22;34086;51.076;13.722;2023-11-19T04:52:29;5.10;99.90
48264;DHT22;34086;51.076;13.722;2023-11-19T04:53:30;5.10;99.90
48264;DHT22;34086;51.076;13.722;2023-11-19T04:54:31;5.10;99.90
48264;DHT22;34086;51.076;13.722;2023-11-19T04:55:31;5.00;99.90
48264;DHT22;34086;51.076;13.722;2023-11-19T04:56:32;5.00;99.90
48264;DHT22;34086;51.076;13.722;2023-11-19T04:57:32;5.10;99.90
48264;DHT22;34086;51.076;13.722;2023-11-19T04:58:33;5.00;99.90
48264;DHT22;34086;51.076;13.722;2023-11-19T04:59:34;5.00;99.90
48264;DHT22;34086;51.076;13.722;2023-11-19T05:00:35;5.10;99.90
48264;DHT22;34086;51.076;13.722;2023-11-19T05:01:35;5.00;99.90
48264;DHT22;34086;51.076;13.722;2023-11-19T05:02:36;5.00;99.90
48264;DHT22;34086;51.076;13.722;2023-11-19T05:03:37;5.00;99.90
48264;DHT22;34086;51.076;13.722;2023-11-19T05:04:42;5.00;99.90
48264;DHT22;34086;51.076;13.722;2023-11-19T05:05:43;5.00;99.90
48264;DHT22;34086;51.076;13.722;2023-11-19T05:06:44;5.00;99.90
48264;DHT22;34086;51.076;13.722;2023-11-19T05:07:44;5.00;99.90
48264;DHT22;34086;51.076;13.722;2023-11-19T05:08:45;4.90;99.90
48264;DHT22;34086;51.076;13.722;2023-11-19T05:09:46;4.90;99.90
48264;DHT22;34086;51.076;13.722;2023-11-19T05:10:46;4.90;99.90
48264;DHT22;34086;51.076;13.722;2023-11-19T05:11:47;4.90;99.90
48264;DHT22;34086;51.076;13.722;2023-11-19T05:12:48;4.90;99.90
48264;DHT22;34086;51.076;13.722;2023-11-19T05:13:51;4.90;99.90
48264;DHT22;34086;51.076;13.722;2023-11-19T05:14:52;4.90;99.90
48264;DHT22;34086;51.076;13.722;2023-11-19T05:15:53;4.90;99.90
48264;DHT22;34086;51.076;13.722;2023-11-19T05:16:53;4.90;99.90
48264;DHT22;34086;51.076;13.722;2023-11-19T05:17:54;4.90;99.90
48264;DHT22;34086;51.076;13.722;2023-11-19T05:18:55;4.90;99.90
48264;DHT22;34086;51.076;13.722;2023-11-19T05:19:55;5.00;99.90
48264;DHT22;34086;51.076;13.722;2023-11-19T05:20:56;5.00;99.90
48264;DHT22;34086;51.076;13.722;2023-11-19T05:21:56;5.00;99.90
48264;DHT22;34086;51.076;13.722;2023-11-19T05:22:57;5.00;99.90
48264;DHT22;34086;51.076;13.722;2023-11-19T05:24:00;5.00;99.90
48264;DHT22;34086;51.076;13.722;2023-11-19T05:25:01;5.00;99.90
48264;DHT22;34086;51.076;13.722;2023-11-19T05:26:03;5.00;99.90
48264;DHT22;34086;51.076;13.722;2023-11-19T05:27:04;4.90;99.90
48264;DHT22;34086;51.076;13.722;2023-11-19T05:28:05;4.90;99.90
48264;DHT22;34086;51.076;13.722;2023-11-19T05:29:05;4.90;99.90
48264;DHT22;34086;51.076;13.722;2023-11-19T05:30:06;4.90;99.90
48264;DHT22;34086;51.076;13.722;2023-11-19T05:31:13;4.90;99.90
48264;DHT22;34086;51.076;13.722;2023-11-19T05:32:14;5.00;99.90
48264;DHT22;34086;51.076;13.722;2023-11-19T05:33:14;5.00;99.90
48264;DHT22;34086;51.076;13.722;2023-11-19T05:34:15;4.90;99.90
48264;DHT22;34086;51.076;13.722;2023-11-19T05:35:15;5.00;99.90
48264;DHT22;34086;51.076;13.722;2023-11-19T05:36:16;4.90;99.90
48264;DHT22;34086;51.076;13.722;2023-11-19T05:37:17;5.00;99.90
48264;DHT22;34086;51.076;13.722;2023-11-19T05:38:18;4.90;99.90
48264;DHT22;34086;51.076;13.722;2023-11-19T05:39:19;4.90;99.90
48264;DHT22;34086;51.076;13.722;2023-11-19T05:40:20;4.90;99.90
48264;DHT22;34086;51.076;13.722;2023-11-19T05:41:21;4.90;99.90
48264;DHT22;34086;51.076;13.722;2023-11-19T05:42:21;4.90;99.90
48264;DHT22;34086;51.076;13.722;2023-11-19T05:43:22;5.00;99.90
48264;DHT22;34086;51.076;13.722;2023-11-19T05:44:22;5.00;99.90
48264;DHT22;34086;51.076;13.722;2023-11-19T05:45:23;5.00;99.90
48264;DHT22;34086;51.076;13.722;2023-11-19T05:46:24;5.00;99.90
48264;DHT22;34086;51.076;13.722;2023-11-19T05:47:27;5.00;99.90
48264;DHT22;34086;51.076;13.722;2023-11-19T05:48:28;5.00;99.90
48264;DHT22;34086;51.076;13.722;2023-11-19T05:49:29;4.90;99.90
48264;DHT22;34086;51.076;13.722;2023-11-19T05:50:30;4.90;99.90
48264;DHT22;34086;51.076;13.722;2023-11-19T05:51:30;4.90;99.90
48264;DHT22;34086;51.076;13.722;2023-11-19T05:52:31;4.90;99.90
48264;DHT22;34086;51.076;13.722;2023-11-19T05:53:33;5.00;99.90
48264;DHT22;34086;51.076;13.722;2023-11-19T05:54:34;4.90;99.90
48264;DHT22;34086;51.076;13.722;2023-11-19T05:55:38;4.90;99.90
48264;DHT22;34086;51.076;13.722;2023-11-19T05:56:48;4.90;99.90
48264;DHT22;34086;51.076;13.722;2023-11-19T05:57:49;4.90;99.90
48264;DHT22;34086;51.076;13.722;2023-11-19T05:58:52;4.90;99.90
48264;DHT22;34086;51.076;13.722;2023-11-19T05:59:52;4.90;99.90
48264;DHT22;34086;51.076;13.722;2023-11-19T06:00:57;5.00;99.90
48264;DHT22;34086;51.076;13.722;2023-11-19T06:01:58;4.90;99.90
48264;DHT22;34086;51.076;13.722;2023-11-19T06:02:59;4.90;99.90
48264;DHT22;34086;51.076;13.722;2023-11-19T06:03:59;4.90;99.90
48264;DHT22;34086;51.076;13.722;2023-11-19T06:05:01;4.90;99.90
48264;DHT22;34086;51.076;13.722;2023-11-19T06:06:01;4.90;99.90
48264;DHT22;34086;51.076;13.722;2023-11-19T06:07:02;4.90;99.90
48264;DHT22;34086;51.076;13.722;2023-11-19T06:08:03;4.90;99.90
48264;DHT22;34086;51.076;13.722;2023-11-19T06:09:03;4.90;99.90
48264;DHT22;34086;51.076;13.722;2023-11-19T06:10:06;4.90;99.90
48264;DHT22;34086;51.076;13.722;2023-11-19T06:11:10;4.80;99.90
48264;DHT22;34086;51.076;13.722;2023-11-19T06:12:15;4.80;99.90
48264;DHT22;34086;51.076;13.722;2023-11-19T06:13:15;4.80;99.90
48264;DHT22;34086;51.076;13.722;2023-11-19T06:14:16;4.80;99.90
48264;DHT22;34086;51.076;13.722;2023-11-19T06:15:17;4.80;99.90
48264;DHT22;34086;51.076;13.722;2023-11-19T06:16:17;4.80;99.90
48264;DHT22;34086;51.076;13.722;2023-11-19T06:17:18;4.80;99.90
48264;DHT22;34086;51.076;13.722;2023-11-19T06:18:18;4.80;99.90
48264;DHT22;34086;51.076;13.722;2023-11-19T06:19:20;4.80;99.90
48264;DHT22;34086;51.076;13.722;2023-11-19T06:20:21;4.80;99.90
48264;DHT22;34086;51.076;13.722;2023-11-19T06:21:21;4.80;99.90
48264;DHT22;34086;51.076;13.722;2023-11-19T06:22:22;4.80;99.90
48264;DHT22;34086;51.076;13.722;2023-11-19T06:23:22;4.80;99.90
48264;DHT22;34086;51.076;13.722;2023-11-19T06:24:23;4.90;99.90
48264;DHT22;34086;51.076;13.722;2023-11-19T06:25:24;4.90;99.90
48264;DHT22;34086;51.076;13.722;2023-11-19T06:26:24;4.90;99.90
48264;DHT22;34086;51.076;13.722;2023-11-19T06:27:25;4.90;99.90
48264;DHT22;34086;51.076;13.722;2023-11-19T06:28:26;4.90;99.90